Time;durP1;ratioP1;P1;durP2;ratioP2;P2;SDS_P1;SDS_P2;PMS_P1;PMS_P2;Temp;Humidity;BMP_temperature;BMP_pressure;BME280_temperature;BME280_humidity;BME280_pressure;Samples;Min_cycle;Max_cycle;Signal;HPM_P1;HPM_P2
2023/04/27 00:00:47;;;;;;;11.13;6.70;;;5.00;99.90;;;;;;5015001;28;20456;-72
2023/04/27 00:03:15;;;;;;;8.30;6.77;;;5.00;99.90;;;;;;5016391;28;20479;-72
2023/04/27 00:05:44;;;;;;;9.40;6.43;;;4.90;99.90;;;;;;5016214;28;20832;-72
2023/04/27 00:08:12;;;;;;;8.20;6.63;;;4.90;99.90;;;;;;5022112;28;20440;-72
2023/04/27 00:10:40;;;;;;;8.30;6.53;;;4.90;99.90;;;;;;5016514;28;20447;-72
2023/04/27 00:13:09;;;;;;;11.00;7.37;;;4.90;99.90;;;;;;5015250;28;20478;-72
2023/04/27 00:15:38;;;;;;;7.10;5.60;;;4.80;99.90;;;;;;5016422;28;20443;-72
2023/04/27 00:18:06;;;;;;;10.20;7.20;;;4.80;99.90;;;;;;5016200;28;20448;-72
2023/04/27 00:20:34;;;;;;;9.00;6.73;;;4.80;99.90;;;;;;5016092;28;20444;-72
2023/04/27 00:23:02;;;;;;;8.80;6.20;;;4.80;99.90;;;;;;5016149;28;20525;-72
2023/04/27 00:25:30;;;;;;;9.20;7.40;;;4.80;99.90;;;;;;5015981;28;20506;-72
2023/04/27 00:27:59;;;;;;;10.83;6.23;;;4.70;99.90;;;;;;5015907;28;20439;-72
2023/04/27 00:30:28;;;;;;;8.90;6.90;;;4.70;99.90;;;;;;5014763;28;20475;-72
2023/04/27 00:32:56;;;;;;;11.37;6.93;;;4.70;99.90;;;;;;5014490;28;20825;-72
2023/04/27 00:35:24;;;;;;;11.63;6.80;;;4.70;99.90;;;;;;5015791;28;20440;-72
2023/04/27 00:37:53;;;;;;;9.53;6.77;;;4.60;99.90;;;;;;5016002;28;20443;-72
2023/04/27 00:40:21;;;;;;;9.17;6.70;;;4.60;99.90;;;;;;5014387;28;20947;-72
2023/04/27 00:42:53;;;;;;;10.43;7.07;;;4.60;99.90;;;;;;5014225;28;20479;-72
2023/04/27 00:45:21;;;;;;;8.17;6.60;;;4.50;99.90;;;;;;5014535;28;20474;-72
2023/04/27 00:47:50;;;;;;;8.10;6.73;;;4.50;99.90;;;;;;5014195;28;20467;-72
2023/04/27 00:50:27;;;;;;;8.80;6.93;;;4.50;99.90;;;;;;5015852;28;20443;-72
2023/04/27 00:52:56;;;;;;;11.30;7.03;;;4.40;99.90;;;;;;5014237;28;20473;-72
2023/04/27 00:55:24;;;;;;;12.33;8.43;;;4.40;99.90;;;;;;5014147;28;20450;-72
2023/04/27 00:57:52;;;;;;;9.60;7.00;;;4.40;99.90;;;;;;5014130;28;20482;-72
2023/04/27 01:00:21;;;;;;;8.30;7.37;;;4.40;99.90;;;;;;5015595;28;20447;-72
2023/04/27 01:02:52;;;;;;;11.80;7.70;;;4.40;99.90;;;;;;5013976;28;20444;-72
2023/04/27 01:05:21;;;;;;;15.03;7.30;;;4.30;99.90;;;;;;5015119;28;20552;-72
2023/04/27 01:07:50;;;;;;;12.00;7.37;;;4.30;99.90;;;;;;5015377;28;20435;-72
2023/04/27 01:10:20;;;;;;;9.70;7.20;;;4.30;99.90;;;;;;5015567;28;20483;-72
2023/04/27 01:12:48;;;;;;;12.00;7.40;;;4.30;99.90;;;;;;5013586;28;20448;-72
2023/04/27 01:15:16;;;;;;;9.77;6.87;;;4.30;99.90;;;;;;5014967;28;20443;-72
2023/04/27 01:17:45;;;;;;;12.70;7.80;;;4.30;99.90;;;;;;5013703;28;20959;-72
2023/04/27 01:20:14;;;;;;;11.90;8.03;;;4.20;99.90;;;;;;5013638;28;20535;-71
2023/04/27 01:22:43;;;;;;;9.37;7.10;;;4.20;99.90;;;;;;5013592;28;20448;-72
2023/04/27 01:25:13;;;;;;;8.10;6.87;;;4.20;99.90;;;;;;5013439;28;21006;-72
2023/04/27 01:27:41;;;;;;;11.03;8.00;;;4.20;99.90;;;;;;5013648;28;20455;-72
2023/04/27 01:30:11;;;;;;;10.60;8.10;;;4.10;99.90;;;;;;5015283;28;20443;-72
2023/04/27 01:32:39;;;;;;;10.80;6.73;;;4.10;99.90;;;;;;5013716;28;20451;-72
2023/04/27 01:35:08;;;;;;;9.33;6.87;;;4.10;99.90;;;;;;5014710;28;20938;-72
2023/04/27 01:37:36;;;;;;;9.80;6.03;;;4.10;99.90;;;;;;5014910;28;20836;-72
2023/04/27 01:40:06;;;;;;;9.50;6.90;;;4.00;99.90;;;;;;5014406;28;20440;-72
2023/04/27 01:42:35;;;;;;;10.00;6.73;;;4.00;99.90;;;;;;5014479;28;20527;-73
2023/04/27 01:45:04;;;;;;;10.00;8.10;;;4.00;99.90;;;;;;5013438;28;20462;-72
2023/04/27 01:47:32;;;;;;;8.93;6.83;;;4.00;99.90;;;;;;5013053;28;20529;-72
2023/04/27 01:50:00;;;;;;;12.87;7.23;;;3.90;99.90;;;;;;5014382;28;20433;-72
2023/04/27 01:52:28;;;;;;;9.97;6.17;;;3.90;99.90;;;;;;5013155;28;20448;-72
2023/04/27 01:54:56;;;;;;;9.63;7.23;;;3.90;99.90;;;;;;5014198;28;20868;-72
2023/04/27 01:57:25;;;;;;;10.83;7.57;;;3.90;99.90;;;;;;5013170;28;20506;-72
2023/04/27 01:59:56;;;;;;;8.10;7.00;;;3.90;99.90;;;;;;5013088;28;20436;-72
2023/04/27 02:02:24;;;;;;;11.70;6.93;;;3.90;99.90;;;;;;5012949;28;20517;-72
2023/04/27 02:04:53;;;;;;;11.83;7.60;;;3.80;99.90;;;;;;5012728;28;20475;-72
2023/04/27 02:07:21;;;;;;;12.20;7.50;;;3.80;99.90;;;;;;5012849;28;20471;-72
2023/04/27 02:09:49;;;;;;;9.50;7.60;;;3.80;99.90;;;;;;5012738;28;20443;-72
2023/04/27 02:12:17;;;;;;;8.57;7.20;;;3.70;99.90;;;;;;5012718;28;20452;-72
2023/04/27 02:14:46;;;;;;;12.93;6.80;;;3.70;99.90;;;;;;5013953;28;20464;-72
2023/04/27 02:17:16;;;;;;;11.43;7.60;;;3.70;99.90;;;;;;5012746;28;20452;-72
2023/04/27 02:19:46;;;;;;;11.00;7.50;;;3.70;99.90;;;;;;5012120;28;20522;-72
2023/04/27 02:22:15;;;;;;;9.67;7.57;;;3.70;99.90;;;;;;5012841;28;20447;-72
2023/04/27 02:24:43;;;;;;;9.17;7.10;;;3.70;99.90;;;;;;5012479;28;20463;-72
2023/04/27 02:27:11;;;;;;;11.03;7.10;;;3.60;99.90;;;;;;5012432;28;20998;-72
2023/04/27 02:29:40;;;;;;;10.20;8.40;;;3.60;99.90;;;;;;5012738;28;20447;-71
2023/04/27 02:32:09;;;;;;;12.87;7.83;;;3.60;99.90;;;;;;5014333;28;20840;-72
2023/04/27 02:34:40;;;;;;;13.27;8.80;;;3.60;99.90;;;;;;5012846;28;21012;-72
2023/04/27 02:37:08;;;;;;;10.00;7.83;;;3.50;99.90;;;;;;5012766;28;20483;-72
2023/04/27 02:39:36;;;;;;;13.03;8.37;;;3.50;99.90;;;;;;5012394;28;20443;-72
2023/04/27 02:42:06;;;;;;;9.20;7.30;;;3.50;99.90;;;;;;5012840;28;20446;-72
2023/04/27 02:44:35;;;;;;;12.10;8.50;;;3.50;99.90;;;;;;5013970;28;20908;-71
2023/04/27 02:47:03;;;;;;;11.60;7.20;;;3.40;99.90;;;;;;5012126;28;20472;-72
2023/04/27 02:49:32;;;;;;;10.93;8.17;;;3.40;99.90;;;;;;5012776;28;20466;-71
2023/04/27 02:52:01;;;;;;;9.40;8.10;;;3.40;99.90;;;;;;5012650;28;20448;-72
2023/04/27 02:54:29;;;;;;;11.50;8.33;;;3.40;99.90;;;;;;5014183;28;20565;-72
2023/04/27 02:56:58;;;;;;;12.13;7.77;;;3.40;99.90;;;;;;5013997;28;20442;-72
2023/04/27 02:59:26;;;;;;;11.30;7.97;;;3.40;99.90;;;;;;5012545;28;21001;-72
2023/04/27 03:01:54;;;;;;;12.27;8.00;;;3.30;99.90;;;;;;5012161;28;20483;-72
2023/04/27 03:04:22;;;;;;;11.17;8.47;;;3.30;99.90;;;;;;5013458;28;20455;-72
2023/04/27 03:06:50;;;;;;;13.70;9.47;;;3.30;99.90;;;;;;5013773;28;20475;-72
2023/04/27 03:09:20;;;;;;;11.37;8.03;;;3.30;99.90;;;;;;5011916;28;20452;-72
2023/04/27 03:11:48;;;;;;;12.33;8.20;;;3.30;99.90;;;;;;5011925;28;20447;-72
2023/04/27 03:14:16;;;;;;;13.83;8.67;;;3.20;99.90;;;;;;5012007;28;20472;-72
2023/04/27 03:16:44;;;;;;;12.83;8.70;;;3.20;99.90;;;;;;5013322;28;20800;-71
2023/04/27 03:19:13;;;;;;;12.17;7.93;;;3.20;99.90;;;;;;5011816;28;20448;-72
2023/04/27 03:21:41;;;;;;;10.70;7.10;;;3.20;99.90;;;;;;5011867;28;20841;-72
2023/04/27 03:24:10;;;;;;;9.73;7.83;;;3.20;99.90;;;;;;5013184;28;20455;-72
2023/04/27 03:26:39;;;;;;;12.07;8.97;;;3.10;99.90;;;;;;5011706;28;20502;-72
2023/04/27 03:29:07;;;;;;;9.60;7.77;;;3.20;99.90;;;;;;5011738;28;21189;-72
2023/04/27 03:31:35;;;;;;;10.93;8.73;;;3.20;99.90;;;;;;5015283;28;20506;-72
2023/04/27 03:34:03;;;;;;;13.43;8.73;;;3.10;99.90;;;;;;5015581;28;20499;-72
2023/04/27 03:36:32;;;;;;;11.27;8.83;;;3.10;99.90;;;;;;5015632;28;20451;-71
2023/04/27 03:39:00;;;;;;;13.50;9.60;;;3.10;99.90;;;;;;5015575;28;20444;-72
2023/04/27 03:41:28;;;;;;;16.23;9.80;;;3.10;99.90;;;;;;5016723;28;20482;-71
2023/04/27 03:43:57;;;;;;;13.10;9.03;;;3.00;99.90;;;;;;5015359;28;20524;-71
2023/04/27 03:46:25;;;;;;;13.20;9.13;;;3.10;99.90;;;;;;5020549;28;20549;-72
2023/04/27 03:48:54;;;;;;;17.27;9.57;;;3.10;99.90;;;;;;5016340;28;20464;-71
2023/04/27 03:51:22;;;;;;;12.17;9.87;;;3.00;99.90;;;;;;5015846;28;20958;-71
2023/04/27 03:53:50;;;;;;;15.80;10.50;;;3.00;99.90;;;;;;5015434;28;20475;-71
2023/04/27 03:56:18;;;;;;;13.33;10.43;;;3.00;99.90;;;;;;5015539;28;20462;-71
2023/04/27 03:58:46;;;;;;;13.00;10.03;;;3.00;99.90;;;;;;5015223;28;20447;-71
2023/04/27 04:01:20;;;;;;;12.30;9.10;;;3.00;99.90;;;;;;5015301;28;20446;-72
2023/04/27 04:03:52;;;;;;;15.13;11.27;;;3.00;99.90;;;;;;5015009;28;20569;-71
2023/04/27 04:06:20;;;;;;;14.23;10.27;;;3.00;99.90;;;;;;5015631;28;20447;-71
2023/04/27 04:08:49;;;;;;;13.70;10.27;;;3.00;99.90;;;;;;5016902;28;20492;-71
2023/04/27 04:11:17;;;;;;;10.33;7.77;;;2.90;99.90;;;;;;5014993;28;20838;-71
2023/04/27 04:13:46;;;;;;;12.60;9.10;;;2.90;99.90;;;;;;5014952;28;20474;-71
2023/04/27 04:16:14;;;;;;;12.83;9.37;;;2.90;99.90;;;;;;5014961;28;20965;-72
2023/04/27 04:18:44;;;;;;;12.77;10.10;;;2.90;99.90;;;;;;5016167;28;20931;-72
2023/04/27 04:21:12;;;;;;;15.53;10.83;;;2.90;99.90;;;;;;5014558;28;20448;-71
2023/04/27 04:23:40;;;;;;;13.93;9.97;;;2.90;99.90;;;;;;5014470;28;20614;-71
2023/04/27 04:26:09;;;;;;;11.70;9.00;;;2.90;99.90;;;;;;5014721;28;20548;-71
2023/04/27 04:28:37;;;;;;;11.50;9.60;;;2.90;99.90;;;;;;5014442;28;20883;-72
2023/04/27 04:31:07;;;;;;;17.33;9.27;;;2.90;99.90;;;;;;5014441;28;20448;-71
2023/04/27 04:33:35;;;;;;;13.43;11.13;;;2.90;99.90;;;;;;5014361;28;20471;-72
2023/04/27 04:36:05;;;;;;;12.30;9.83;;;2.90;99.90;;;;;;5014321;28;20478;-73
2023/04/27 04:38:34;;;;;;;15.70;11.53;;;2.90;99.90;;;;;;5014237;28;20440;-70
2023/04/27 04:41:02;;;;;;;16.07;11.40;;;2.90;99.90;;;;;;5014222;28;20446;-71
2023/04/27 04:43:33;;;;;;;18.00;12.60;;;2.90;99.90;;;;;;5013573;28;20843;-71
2023/04/27 04:46:05;;;;;;;15.30;12.20;;;2.90;99.90;;;;;;5015001;28;20528;-71
2023/04/27 04:48:34;;;;;;;16.93;12.50;;;2.90;99.90;;;;;;5013918;28;20837;-71
2023/04/27 04:51:06;;;;;;;15.93;10.50;;;2.90;99.90;;;;;;5015301;28;20523;-71
2023/04/27 04:53:35;;;;;;;25.33;12.23;;;2.90;99.90;;;;;;5014026;28;20501;-71
2023/04/27 04:56:11;;;;;;;15.63;12.77;;;2.90;99.90;;;;;;5013867;28;20510;-71
2023/04/27 04:58:40;;;;;;;16.20;12.33;;;2.90;99.90;;;;;;5013995;28;20536;-71
2023/04/27 05:01:09;;;;;;;16.20;11.50;;;2.90;99.90;;;;;;5014020;28;20454;-71
2023/04/27 05:03:37;;;;;;;12.93;11.07;;;3.00;99.90;;;;;;5015171;28;20463;-71
2023/04/27 05:06:07;;;;;;;12.10;10.40;;;3.00;99.90;;;;;;5015168;28;21001;-71
2023/04/27 05:08:36;;;;;;;15.80;10.53;;;3.00;99.90;;;;;;5013827;28;20470;-71
2023/04/27 05:11:04;;;;;;;9.80;7.93;;;3.00;99.90;;;;;;5015220;28;20445;-71
2023/04/27 05:13:32;;;;;;;12.47;10.10;;;3.00;99.90;;;;;;5014906;28;20470;-71
2023/04/27 05:16:04;;;;;;;12.07;10.67;;;3.00;99.90;;;;;;5015196;28;20436;-71
2023/04/27 05:18:32;;;;;;;11.23;9.30;;;3.10;99.90;;;;;;5015531;28;20514;-71
2023/04/27 05:21:00;;;;;;;13.60;10.03;;;3.10;99.90;;;;;;5014885;28;20447;-71
2023/04/27 05:23:29;;;;;;;12.67;10.70;;;3.10;99.90;;;;;;5014535;28;20461;-71
2023/04/27 05:25:58;;;;;;;16.77;10.27;;;3.10;99.90;;;;;;5014548;28;20437;-71
2023/04/27 05:28:26;;;;;;;12.20;9.10;;;3.20;99.90;;;;;;5014469;28;20481;-71
2023/04/27 05:30:54;;;;;;;12.10;10.23;;;3.20;99.90;;;;;;5014551;28;20436;-71
2023/04/27 05:33:22;;;;;;;12.63;10.47;;;3.20;99.90;;;;;;5014434;28;20581;-71
2023/04/27 05:35:50;;;;;;;13.93;9.30;;;3.30;99.90;;;;;;5014393;28;20439;-71
2023/04/27 05:38:18;;;;;;;13.87;10.43;;;3.30;99.90;;;;;;5014444;28;20457;-71
2023/04/27 05:40:47;;;;;;;11.77;9.57;;;3.40;99.90;;;;;;5014537;28;20792;-70
2023/04/27 05:43:15;;;;;;;13.30;10.10;;;3.40;99.90;;;;;;5014637;28;20984;-71
2023/04/27 05:45:43;;;;;;;12.23;9.00;;;3.50;99.90;;;;;;5014281;28;20438;-71
2023/04/27 05:48:13;;;;;;;12.97;9.10;;;3.50;99.90;;;;;;5013978;28;20474;-71
2023/04/27 05:50:41;;;;;;;11.60;8.87;;;3.60;99.90;;;;;;5014059;28;20444;-71
2023/04/27 05:53:09;;;;;;;12.00;9.77;;;3.70;99.90;;;;;;5014080;28;21058;-71
2023/04/27 05:55:38;;;;;;;12.93;10.40;;;3.80;99.90;;;;;;5013072;28;20442;-71
2023/04/27 05:58:07;;;;;;;12.57;10.10;;;4.00;99.90;;;;;;5012709;28;20455;-71
2023/04/27 06:00:37;;;;;;;13.10;9.30;;;4.20;99.90;;;;;;5013967;28;20525;-71
2023/04/27 06:03:05;;;;;;;12.73;9.83;;;4.40;99.90;;;;;;5013932;28;20554;-71
2023/04/27 06:05:34;;;;;;;11.73;9.80;;;4.70;99.90;;;;;;5013938;28;20475;-71
2023/04/27 06:08:02;;;;;;;17.10;10.53;;;4.90;99.90;;;;;;5013738;28;20472;-71
2023/04/27 06:10:30;;;;;;;11.37;9.60;;;5.30;99.90;;;;;;5013785;28;20977;-71
2023/04/27 06:12:58;;;;;;;10.87;9.77;;;5.60;99.90;;;;;;5014101;28;20819;-71
2023/04/27 06:15:28;;;;;;;12.43;10.50;;;5.90;99.90;;;;;;5013905;28;20443;-71
2023/04/27 06:17:56;;;;;;;8.93;7.90;;;6.20;99.90;;;;;;5013668;28;20438;-71
2023/04/27 06:20:24;;;;;;;10.43;8.63;;;6.50;99.90;;;;;;5013625;28;20432;-71
2023/04/27 06:22:52;;;;;;;9.67;7.90;;;6.80;99.90;;;;;;5013643;28;20442;-72
2023/04/27 06:25:20;;;;;;;9.40;8.07;;;7.10;99.90;;;;;;5013809;28;20461;-72
2023/04/27 06:27:51;;;;;;;10.83;7.83;;;7.30;99.90;;;;;;5018066;28;20961;-72
2023/04/27 06:30:19;;;;;;;8.43;7.53;;;7.60;99.90;;;;;;5017744;28;20437;-71
2023/04/27 06:32:48;;;;;;;9.00;8.07;;;7.90;99.90;;;;;;5013820;28;20458;-72
2023/04/27 06:35:17;;;;;;;8.70;7.80;;;8.10;99.90;;;;;;5017593;28;20799;-72
2023/04/27 06:37:46;;;;;;;9.20;7.20;;;8.40;99.90;;;;;;5014802;28;20501;-72
2023/04/27 06:40:14;;;;;;;9.90;7.20;;;8.60;99.90;;;;;;5014984;28;20431;-72
2023/04/27 06:42:42;;;;;;;9.03;6.50;;;8.90;99.90;;;;;;5013534;28;20530;-72
2023/04/27 06:45:11;;;;;;;9.30;7.80;;;9.20;99.90;;;;;;5013927;28;20438;-72
2023/04/27 06:47:39;;;;;;;7.83;6.70;;;9.40;99.90;;;;;;5014473;28;20442;-72
2023/04/27 06:50:09;;;;;;;8.97;6.17;;;9.60;99.90;;;;;;5014314;28;20861;-72
2023/04/27 06:52:38;;;;;;;7.27;5.40;;;9.80;99.90;;;;;;5014210;28;20748;-73
2023/04/27 06:55:06;;;;;;;8.80;5.53;;;10.00;99.90;;;;;;5014057;28;20435;-72
2023/04/27 06:57:35;;;;;;;6.20;5.10;;;10.20;99.90;;;;;;5013957;28;20450;-73
2023/04/27 07:00:03;;;;;;;6.00;4.73;;;10.30;99.90;;;;;;5013524;28;20997;-72
2023/04/27 07:02:32;;;;;;;6.40;5.20;;;10.40;99.90;;;;;;5012167;28;20833;-72
2023/04/27 07:05:00;;;;;;;7.90;6.83;;;10.60;99.90;;;;;;5013413;28;20428;-72
2023/04/27 07:07:29;;;;;;;8.10;6.40;;;10.80;99.90;;;;;;5019938;28;20526;-72
2023/04/27 07:09:57;;;;;;;11.43;6.00;;;10.90;99.90;;;;;;5019804;28;20545;-72
2023/04/27 07:12:26;;;;;;;7.23;5.07;;;11.10;99.90;;;;;;5019751;28;20431;-72
2023/04/27 07:14:54;;;;;;;6.83;5.80;;;11.20;99.90;;;;;;5019475;28;20471;-72
2023/04/27 07:17:26;;;;;;;9.00;5.60;;;11.40;99.90;;;;;;5019711;28;20435;-72
2023/04/27 07:19:54;;;;;;;6.97;5.00;;;11.60;99.90;;;;;;5019689;28;20879;-72
2023/04/27 07:22:22;;;;;;;6.90;5.07;;;11.70;99.90;;;;;;5023627;28;20435;-71
2023/04/27 07:24:51;;;;;;;9.30;4.97;;;11.90;99.90;;;;;;5020786;28;20460;-71
2023/04/27 07:27:19;;;;;;;7.50;5.47;;;12.10;99.90;;;;;;5021432;28;20522;-72
2023/04/27 07:29:47;;;;;;;9.60;4.50;;;12.20;99.90;;;;;;5020824;28;20475;-72
2023/04/27 07:32:15;;;;;;;7.80;4.30;;;12.40;99.90;;;;;;5018585;28;20444;-72
2023/04/27 07:34:44;;;;;;;5.40;4.47;;;12.40;99.90;;;;;;5018553;28;20498;-72
2023/04/27 07:37:21;;;;;;;6.83;4.13;;;12.50;99.90;;;;;;5020244;28;20826;-72
2023/04/27 07:39:51;;;;;;;5.77;3.93;;;12.50;99.90;;;;;;5020134;28;20428;-73
2023/04/27 07:42:21;;;;;;;8.63;4.70;;;12.70;99.90;;;;;;5021051;28;20455;-72
2023/04/27 07:44:50;;;;;;;7.70;5.10;;;12.80;99.90;;;;;;5019453;28;20954;-72
2023/04/27 07:47:18;;;;;;;7.50;4.40;;;12.90;99.90;;;;;;5019468;28;20444;-72
2023/04/27 07:49:46;;;;;;;7.57;4.90;;;13.00;99.90;;;;;;5018181;28;20463;-72
2023/04/27 07:52:15;;;;;;;6.33;4.50;;;13.10;99.90;;;;;;5019749;28;20436;-72
2023/04/27 07:54:43;;;;;;;6.40;3.40;;;13.10;99.90;;;;;;5019358;28;20495;-72
2023/04/27 07:57:13;;;;;;;8.87;3.80;;;13.20;99.90;;;;;;5019614;28;20439;-72
2023/04/27 07:59:41;;;;;;;6.27;2.90;;;13.20;99.90;;;;;;5019360;28;20444;-72
2023/04/27 08:02:09;;;;;;;7.10;3.50;;;13.10;99.90;;;;;;5019342;28;20443;-72
2023/04/27 08:04:46;;;;;;;7.07;3.47;;;12.90;99.90;;;;;;5019685;28;20467;-72
2023/04/27 08:07:15;;;;;;;6.20;3.97;;;12.70;99.90;;;;;;5019965;28;20443;-72
2023/04/27 08:09:44;;;;;;;7.50;3.53;;;12.70;99.90;;;;;;5018505;28;20470;-72
2023/04/27 08:12:14;;;;;;;5.10;3.80;;;12.80;99.90;;;;;;5019334;28;20929;-72
2023/04/27 08:14:42;;;;;;;7.40;3.90;;;13.00;99.90;;;;;;5019164;28;20965;-72
2023/04/27 08:17:10;;;;;;;5.30;3.50;;;13.10;99.90;;;;;;5018389;28;20439;-71
2023/04/27 08:19:39;;;;;;;5.10;4.03;;;13.20;99.90;;;;;;5016113;28;20440;-72
2023/04/27 08:22:07;;;;;;;6.67;4.17;;;13.40;99.90;;;;;;5016558;28;20466;-71
2023/04/27 08:24:36;;;;;;;5.07;3.90;;;13.50;99.90;;;;;;5015145;28;20473;-72
2023/04/27 08:27:05;;;;;;;8.73;4.90;;;13.60;99.90;;;;;;5016244;28;20486;-72
2023/04/27 08:29:35;;;;;;;6.13;3.87;;;13.70;99.90;;;;;;5016527;28;21005;-72
2023/04/27 08:32:04;;;;;;;6.90;4.20;;;13.80;99.70;;;;;;5016653;28;20454;-71
2023/04/27 08:34:32;;;;;;;6.40;4.57;;;13.80;99.70;;;;;;5015111;28;20468;-72
2023/04/27 08:37:02;;;;;;;8.13;4.77;;;14.00;99.80;;;;;;5015123;28;20455;-71
2023/04/27 08:39:30;;;;;;;4.97;4.20;;;14.10;99.90;;;;;;5016705;28;20435;-71
2023/04/27 08:41:58;;;;;;;6.90;4.33;;;14.20;99.60;;;;;;5016692;28;20459;-71
2023/04/27 08:44:26;;;;;;;5.90;4.30;;;14.30;99.40;;;;;;5015924;28;20460;-71
2023/04/27 08:46:55;;;;;;;5.63;4.60;;;14.40;99.40;;;;;;5014472;28;20444;-72
2023/04/27 08:49:24;;;;;;;5.57;4.23;;;14.50;99.00;;;;;;5015494;28;20562;-72
2023/04/27 08:51:52;;;;;;;6.20;3.87;;;14.60;98.80;;;;;;5015630;28;20935;-72
2023/04/27 08:54:21;;;;;;;7.37;4.43;;;14.70;98.70;;;;;;5015446;28;20466;-72
2023/04/27 08:56:49;;;;;;;6.00;4.03;;;14.70;98.40;;;;;;5015722;28;20432;-72
2023/04/27 08:59:17;;;;;;;4.80;4.13;;;14.70;97.90;;;;;;5016053;28;20444;-72
2023/04/27 09:01:47;;;;;;;6.10;3.97;;;14.70;97.60;;;;;;5015584;28;20444;-72
2023/04/27 09:04:18;;;;;;;10.63;4.57;;;14.70;97.40;;;;;;5015578;28;20474;-72
2023/04/27 09:06:48;;;;;;;5.00;3.80;;;14.50;97.20;;;;;;5015870;28;20399;-72
2023/04/27 09:09:23;;;;;;;5.50;4.40;;;14.40;97.00;;;;;;5015922;28;20551;-72
2023/04/27 09:11:52;;;;;;;5.73;4.37;;;14.40;96.50;;;;;;5015736;28;20489;-72
2023/04/27 09:14:21;;;;;;;7.27;4.00;;;14.40;96.50;;;;;;5013918;28;21102;-72
2023/04/27 09:16:56;;;;;;;6.57;4.73;;;14.40;96.40;;;;;;5015226;28;20807;-72
2023/04/27 09:19:27;;;;;;;6.67;4.77;;;14.50;96.20;;;;;;5015386;28;20814;-72
2023/04/27 09:22:06;;;;;;;6.23;4.30;;;14.50;96.00;;;;;;5015300;28;20440;-72
2023/04/27 09:24:34;;;;;;;5.47;4.77;;;14.60;95.90;;;;;;5016296;28;20466;-72
2023/04/27 09:27:03;;;;;;;6.60;5.00;;;14.60;95.80;;;;;;5015148;28;20450;-72
2023/04/27 09:29:35;;;;;;;6.57;4.27;;;14.80;95.90;;;;;;5014825;28;20555;-72
2023/04/27 09:32:16;;;;;;;5.07;4.20;;;14.90;96.10;;;;;;5014852;28;20438;-72
2023/04/27 09:34:46;;;;;;;6.07;4.10;;;15.00;95.60;;;;;;5014840;28;20456;-72
2023/04/27 09:37:14;;;;;;;6.97;4.63;;;15.00;95.20;;;;;;5014784;28;20447;-72
2023/04/27 09:39:43;;;;;;;5.73;4.20;;;15.00;95.00;;;;;;5013568;28;20455;-72
2023/04/27 09:42:12;;;;;;;7.20;4.23;;;14.80;94.40;;;;;;5014672;28;20440;-72
2023/04/27 09:44:41;;;;;;;7.00;4.50;;;14.70;94.30;;;;;;5015191;28;20503;-72
2023/04/27 09:47:10;;;;;;;5.13;3.90;;;14.50;94.30;;;;;;5013406;28;20444;-72
2023/04/27 09:49:38;;;;;;;5.70;4.23;;;14.40;94.10;;;;;;5014561;28;20986;-72
2023/04/27 09:52:08;;;;;;;5.87;4.30;;;14.50;94.20;;;;;;5014576;28;20789;-72
2023/04/27 09:54:37;;;;;;;6.73;4.83;;;14.40;94.00;;;;;;5014570;28;20460;-72
2023/04/27 09:57:17;;;;;;;5.63;4.63;;;14.40;93.70;;;;;;5014508;28;20471;-72
2023/04/27 10:00:06;;;;;;;8.10;4.80;;;14.30;93.70;;;;;;5014473;28;20458;-72
2023/04/27 10:02:45;;;;;;;6.30;4.93;;;14.20;93.60;;;;;;5014231;28;20531;-72
2023/04/27 10:06:06;;;;;;;7.57;4.90;;;14.20;93.60;;;;;;5014843;28;20424;-72
2023/04/27 10:08:37;;;;;;;6.20;4.90;;;14.20;93.40;;;;;;4987461;28;20542;-73
2023/04/27 10:11:14;;;;;;;8.50;5.03;;;14.10;93.70;;;;;;5014172;28;20455;-72
2023/04/27 10:13:51;;;;;;;7.10;4.30;;;14.10;93.80;;;;;;5014497;28;20461;-72
2023/04/27 10:16:22;;;;;;;6.07;4.80;;;14.20;93.60;;;;;;5014025;28;20450;-72
2023/04/27 10:18:55;;;;;;;6.13;5.30;;;14.30;93.80;;;;;;5014260;28;20443;-72
2023/04/27 10:21:23;;;;;;;7.90;4.70;;;14.30;93.60;;;;;;5014218;28;20417;-72
2023/04/27 10:23:53;;;;;;;8.10;5.20;;;14.30;93.70;;;;;;5014105;28;20470;-71
2023/04/27 10:26:24;;;;;;;5.87;4.97;;;14.30;93.20;;;;;;5014255;28;20440;-72
2023/04/27 10:29:04;;;;;;;8.73;5.23;;;14.30;93.30;;;;;;5013939;28;20443;-72
2023/04/27 10:31:32;;;;;;;7.43;5.80;;;14.40;93.20;;;;;;5014274;28;20463;-72
2023/04/27 10:34:08;;;;;;;6.23;5.37;;;14.50;93.00;;;;;;5013598;28;20466;-72
2023/04/27 10:36:37;;;;;;;6.57;5.10;;;14.60;92.90;;;;;;5014203;28;20436;-72
2023/04/27 10:39:17;;;;;;;5.80;5.00;;;14.60;92.80;;;;;;5013847;28;20935;-72
2023/04/27 10:41:53;;;;;;;8.63;5.50;;;14.60;92.50;;;;;;5014024;28;20432;-72
2023/04/27 10:44:27;;;;;;;6.00;5.03;;;14.50;92.50;;;;;;5014471;28;20464;-72
2023/04/27 10:46:58;;;;;;;5.67;5.00;;;14.50;92.50;;;;;;5014276;28;20795;-72
2023/04/27 10:49:28;;;;;;;6.13;5.53;;;14.50;92.50;;;;;;5013689;28;20490;-72
2023/04/27 10:51:59;;;;;;;6.60;4.93;;;14.40;92.30;;;;;;5012869;28;20468;-72
2023/04/27 10:54:29;;;;;;;5.43;4.63;;;14.30;92.10;;;;;;5012294;28;20467;-72
2023/04/27 10:57:04;;;;;;;5.70;4.73;;;14.30;91.90;;;;;;5014911;28;20443;-72
2023/04/27 10:59:33;;;;;;;6.90;4.63;;;14.30;91.90;;;;;;5016824;28;20419;-73
2023/04/27 11:02:01;;;;;;;8.13;5.20;;;14.40;91.90;;;;;;5014382;28;20494;-72
2023/04/27 11:04:38;;;;;;;4.77;4.27;;;14.40;92.10;;;;;;5014086;28;20552;-72
2023/04/27 11:07:08;;;;;;;5.93;4.60;;;14.40;91.50;;;;;;5013890;28;20455;-72
2023/04/27 11:09:38;;;;;;;5.60;4.80;;;14.40;91.60;;;;;;5013405;28;20873;-72
2023/04/27 11:12:08;;;;;;;6.03;4.20;;;14.40;91.70;;;;;;5013931;28;20459;-72
2023/04/27 11:14:36;;;;;;;7.53;5.00;;;14.50;91.80;;;;;;5013642;28;20562;-72
2023/04/27 11:17:04;;;;;;;5.77;4.63;;;14.40;91.70;;;;;;5013285;28;20453;-72
2023/04/27 11:19:32;;;;;;;8.27;4.60;;;14.40;91.60;;;;;;5013603;28;20459;-72
2023/04/27 11:22:05;;;;;;;6.70;4.50;;;14.30;91.70;;;;;;5013173;28;20439;-72
2023/04/27 11:24:33;;;;;;;6.17;5.17;;;14.30;91.90;;;;;;5013087;28;20986;-73
2023/04/27 11:27:02;;;;;;;6.93;5.50;;;14.20;91.50;;;;;;5013263;28;20448;-73
2023/04/27 11:29:38;;;;;;;7.47;5.33;;;14.20;91.50;;;;;;5013559;28;21021;-73
2023/04/27 11:32:06;;;;;;;6.10;5.50;;;14.20;91.30;;;;;;5013347;28;20455;-72
2023/04/27 11:34:37;;;;;;;6.33;5.63;;;14.10;91.40;;;;;;5013012;28;20455;-73
2023/04/27 11:37:07;;;;;;;4.80;4.30;;;14.20;91.50;;;;;;5013326;28;20428;-72
2023/04/27 11:39:45;;;;;;;6.60;4.60;;;14.30;91.60;;;;;;5013149;28;20434;-72
2023/04/27 11:42:23;;;;;;;6.93;5.40;;;14.40;91.80;;;;;;5012974;28;20962;-72
2023/04/27 11:44:55;;;;;;;6.23;5.27;;;14.50;91.70;;;;;;5012902;28;20495;-72
2023/04/27 11:47:24;;;;;;;6.30;4.57;;;14.50;91.50;;;;;;5013160;28;20428;-72
2023/04/27 11:49:55;;;;;;;5.57;4.93;;;14.50;91.50;;;;;;5013538;28;20458;-72
2023/04/27 11:52:27;;;;;;;8.30;5.90;;;14.40;91.40;;;;;;5013518;28;20857;-73
2023/04/27 11:54:55;;;;;;;5.70;5.20;;;14.40;91.30;;;;;;5016804;28;20804;-72
2023/04/27 11:57:33;;;;;;;5.77;5.17;;;14.40;91.20;;;;;;5016998;28;20938;-73
2023/04/27 12:00:09;;;;;;;4.87;4.37;;;14.40;91.50;;;;;;5017282;28;20831;-72
2023/04/27 12:02:40;;;;;;;7.07;4.90;;;14.50;91.20;;;;;;5017057;28;20419;-73
2023/04/27 12:05:10;;;;;;;5.77;5.03;;;14.50;90.80;;;;;;5016828;28;20443;-73
2023/04/27 12:07:40;;;;;;;8.07;4.77;;;14.50;90.60;;;;;;5017369;28;20420;-73
2023/04/27 12:10:08;;;;;;;7.07;4.83;;;14.50;90.70;;;;;;5017408;28;20842;-73
2023/04/27 12:12:38;;;;;;;5.33;4.70;;;14.50;90.60;;;;;;5016398;28;20476;-74
2023/04/27 12:15:07;;;;;;;5.30;4.70;;;14.50;90.40;;;;;;5016480;28;20910;-73
2023/04/27 12:17:36;;;;;;;7.10;5.30;;;14.40;90.10;;;;;;5016979;28;20443;-73
2023/04/27 12:20:05;;;;;;;5.20;4.67;;;14.30;90.00;;;;;;5016716;28;20523;-73
2023/04/27 12:22:33;;;;;;;6.70;4.77;;;14.20;90.00;;;;;;5014876;28;20954;-73
2023/04/27 12:25:01;;;;;;;7.07;4.50;;;14.20;89.30;;;;;;5016018;28;20447;-73
2023/04/27 12:27:29;;;;;;;5.83;5.23;;;14.10;89.70;;;;;;5016169;28;20487;-73
2023/04/27 12:29:59;;;;;;;6.20;4.93;;;14.10;89.90;;;;;;5016079;28;20444;-73
2023/04/27 12:32:27;;;;;;;6.23;5.40;;;14.10;89.90;;;;;;5016206;28;20459;-73
2023/04/27 12:34:55;;;;;;;6.13;5.50;;;14.10;89.90;;;;;;5016132;28;20459;-73
2023/04/27 12:37:23;;;;;;;7.37;5.57;;;14.20;90.00;;;;;;5016130;28;21005;-73
2023/04/27 12:39:54;;;;;;;8.40;5.20;;;14.20;90.10;;;;;;5014937;28;20786;-73
2023/04/27 12:42:23;;;;;;;6.77;5.03;;;14.30;90.30;;;;;;5016057;28;20494;-73
2023/04/27 12:44:51;;;;;;;6.63;5.70;;;14.30;90.30;;;;;;5016111;28;20466;-73
2023/04/27 12:47:22;;;;;;;6.87;5.23;;;14.40;90.20;;;;;;5016006;28;20939;-73
2023/04/27 12:49:53;;;;;;;6.17;5.57;;;14.50;90.10;;;;;;5015849;28;20424;-73
2023/04/27 12:52:21;;;;;;;5.13;4.63;;;14.60;90.10;;;;;;5015547;28;20468;-73
2023/04/27 12:54:56;;;;;;;6.80;5.90;;;14.70;90.00;;;;;;5015566;28;20470;-73
2023/04/27 12:57:25;;;;;;;7.13;5.83;;;14.70;89.50;;;;;;5015849;28;20431;-73
2023/04/27 12:59:53;;;;;;;6.03;5.37;;;14.70;89.40;;;;;;5015481;28;20938;-73